sensor_id;sensor_type;location;lat;lon;timestamp;temperature;humidity
47604;DHT22;33326;51.116;6.900;2023-02-24T00:00:47;7.60;99.90
47604;DHT22;33326;51.116;6.900;2023-02-24T00:05:52;7.50;99.90
47604;DHT22;33326;51.116;6.900;2023-02-24T00:10:56;7.40;99.90
47604;DHT22;33326;51.116;6.900;2023-02-24T00:15:59;7.40;99.90
47604;DHT22;33326;51.116;6.900;2023-02-24T00:21:04;7.40;99.90
47604;DHT22;33326;51.116;6.900;2023-02-24T00:26:10;7.40;99.90
47604;DHT22;33326;51.116;6.900;2023-02-24T00:31:14;7.40;99.90
47604;DHT22;33326;51.116;6.900;2023-02-24T00:36:19;7.50;99.90
47604;DHT22;33326;51.116;6.900;2023-02-24T00:41:27;7.70;99.90
47604;DHT22;33326;51.116;6.900;2023-02-24T00:46:29;7.70;99.90
47604;DHT22;33326;51.116;6.900;2023-02-24T00:51:35;7.70;99.90
47604;DHT22;33326;51.116;6.900;2023-02-24T00:56:39;7.70;99.90
47604;DHT22;33326;51.116;6.900;2023-02-24T01:01:42;7.70;99.90
47604;DHT22;33326;51.116;6.900;2023-02-24T01:06:46;7.70;99.90
47604;DHT22;33326;51.116;6.900;2023-02-24T01:11:51;7.70;99.90
47604;DHT22;33326;51.116;6.900;2023-02-24T01:17:18;7.60;99.90
47604;DHT22;33326;51.116;6.900;2023-02-24T01:22:20;7.40;99.90
47604;DHT22;33326;51.116;6.900;2023-02-24T01:27:24;7.30;99.90
47604;DHT22;33326;51.116;6.900;2023-02-24T01:32:26;7.20;99.90
47604;DHT22;33326;51.116;6.900;2023-02-24T01:37:31;7.20;99.90
47604;DHT22;33326;51.116;6.900;2023-02-24T01:42:35;7.10;99.90
47604;DHT22;33326;51.116;6.900;2023-02-24T01:47:39;7.10;99.90
47604;DHT22;33326;51.116;6.900;2023-02-24T01:52:44;7.20;99.90
47604;DHT22;33326;51.116;6.900;2023-02-24T01:57:49;7.10;99.90
47604;DHT22;33326;51.116;6.900;2023-02-24T02:02:54;7.20;99.90
47604;DHT22;33326;51.116;6.900;2023-02-24T02:08:01;7.10;99.90
47604;DHT22;33326;51.116;6.900;2023-02-24T02:13:05;7.00;99.90
47604;DHT22;33326;51.116;6.900;2023-02-24T02:18:11;7.10;99.90
47604;DHT22;33326;51.116;6.900;2023-02-24T02:23:32;7.00;99.90
47604;DHT22;33326;51.116;6.900;2023-02-24T02:28:41;7.00;99.90
47604;DHT22;33326;51.116;6.900;2023-02-24T02:34:06;6.90;99.90
47604;DHT22;33326;51.116;6.900;2023-02-24T02:39:13;6.90;99.90
47604;DHT22;33326;51.116;6.900;2023-02-24T02:44:21;6.80;99.90
47604;DHT22;33326;51.116;6.900;2023-02-24T02:49:30;6.80;99.90
47604;DHT22;33326;51.116;6.900;2023-02-24T02:54:38;6.90;99.90
47604;DHT22;33326;51.116;6.900;2023-02-24T02:59:50;6.90;99.90
47604;DHT22;33326;51.116;6.900;2023-02-24T03:04:57;6.80;99.90
47604;DHT22;33326;51.116;6.900;2023-02-24T03:10:03;6.90;99.90
47604;DHT22;33326;51.116;6.900;2023-02-24T03:15:11;6.80;99.90
47604;DHT22;33326;51.116;6.900;2023-02-24T03:20:20;6.80;99.90
47604;DHT22;33326;51.116;6.900;2023-02-24T03:25:25;6.70;99.90
47604;DHT22;33326;51.116;6.900;2023-02-24T03:30:37;6.70;99.90
47604;DHT22;33326;51.116;6.900;2023-02-24T03:35:45;6.80;99.90
47604;DHT22;33326;51.116;6.900;2023-02-24T03:40:51;6.70;99.90
47604;DHT22;33326;51.116;6.900;2023-02-24T03:45:59;6.70;99.90
47604;DHT22;33326;51.116;6.900;2023-02-24T03:51:04;6.80;99.90
47604;DHT22;33326;51.116;6.900;2023-02-24T03:56:26;6.80;99.90
47604;DHT22;33326;51.116;6.900;2023-02-24T04:01:35;6.80;99.90
47604;DHT22;33326;51.116;6.900;2023-02-24T04:06:45;6.70;99.90
47604;DHT22;33326;51.116;6.900;2023-02-24T04:11:54;6.60;99.90
47604;DHT22;33326;51.116;6.900;2023-02-24T04:17:01;6.60;99.90
47604;DHT22;33326;51.116;6.900;2023-02-24T04:22:11;6.70;99.90
47604;DHT22;33326;51.116;6.900;2023-02-24T04:27:15;6.50;99.90
47604;DHT22;33326;51.116;6.900;2023-02-24T04:32:21;6.50;99.90
47604;DHT22;33326;51.116;6.900;2023-02-24T04:37:25;6.50;99.90
47604;DHT22;33326;51.116;6.900;2023-02-24T04:42:33;6.60;99.90
47604;DHT22;33326;51.116;6.900;2023-02-24T04:47:35;6.50;99.90
47604;DHT22;33326;51.116;6.900;2023-02-24T04:52:40;6.30;99.90
47604;DHT22;33326;51.116;6.900;2023-02-24T04:57:44;6.40;99.90
47604;DHT22;33326;51.116;6.900;2023-02-24T05:02:48;6.40;99.90
47604;DHT22;33326;51.116;6.900;2023-02-24T05:07:52;6.40;99.90
47604;DHT22;33326;51.116;6.900;2023-02-24T05:12:54;6.30;99.90
47604;DHT22;33326;51.116;6.900;2023-02-24T05:17:58;6.00;99.90
47604;DHT22;33326;51.116;6.900;2023-02-24T05:23:02;6.00;99.90
47604;DHT22;33326;51.116;6.900;2023-02-24T05:28:04;6.00;99.90
47604;DHT22;33326;51.116;6.900;2023-02-24T05:33:06;6.10;99.90
47604;DHT22;33326;51.116;6.900;2023-02-24T05:38:10;6.20;99.90
47604;DHT22;33326;51.116;6.900;2023-02-24T05:43:14;6.30;99.90
47604;DHT22;33326;51.116;6.900;2023-02-24T05:48:18;6.30;99.90
47604;DHT22;33326;51.116;6.900;2023-02-24T05:53:21;6.20;99.90
47604;DHT22;33326;51.116;6.900;2023-02-24T05:58:23;6.20;99.90
47604;DHT22;33326;51.116;6.900;2023-02-24T06:03:28;6.10;99.90
47604;DHT22;33326;51.116;6.900;2023-02-24T06:08:44;5.90;99.90
47604;DHT22;33326;51.116;6.900;2023-02-24T06:14:00;5.70;99.90
47604;DHT22;33326;51.116;6.900;2023-02-24T06:19:03;5.60;99.90
47604;DHT22;33326;51.116;6.900;2023-02-24T06:24:19;5.60;99.90
47604;DHT22;33326;51.116;6.900;2023-02-24T06:29:21;5.50;99.90
47604;DHT22;33326;51.116;6.900;2023-02-24T06:34:30;5.60;99.90
47604;DHT22;33326;51.116;6.900;2023-02-24T06:39:36;5.40;99.90
47604;DHT22;33326;51.116;6.900;2023-02-24T19:27:41;5.90;99.90
47604;DHT22;33326;51.116;6.900;2023-02-24T19:32:48;5.90;99.90
